sensor_id;sensor_type;location;lat;lon;timestamp;P1;durP1;ratioP1;P2;durP2;ratioP2
58306;SDS011;44116;50.884;4.768;2023-03-14T00:01:09;6.1;;;1.3;;
58306;SDS011;44116;50.884;4.768;2023-03-14T00:03:08;6.2;;;1.7;;
58306;SDS011;44116;50.884;4.768;2023-03-14T00:05:09;5.3;;;1.5;;
58306;SDS011;44116;50.884;4.768;2023-03-14T00:07:10;5.4;;;1.1;;
58306;SDS011;44116;50.884;4.768;2023-03-14T00:09:08;5.3;;;1.2;;
58306;SDS011;44116;50.884;4.768;2023-03-14T00:11:10;6.8;;;1.4;;
58306;SDS011;44116;50.884;4.768;2023-03-14T00:13:07;7.2;;;1.7;;
58306;SDS011;44116;50.884;4.768;2023-03-14T00:15:07;6.1;;;1.3;;
58306;SDS011;44116;50.884;4.768;2023-03-14T00:19:06;6.1;;;1.4;;
58306;SDS011;44116;50.884;4.768;2023-03-14T00:21:08;13.8;;;1.6;;
58306;SDS011;44116;50.884;4.768;2023-03-14T00:23:06;5.5;;;1.5;;
58306;SDS011;44116;50.884;4.768;2023-03-14T00:25:07;21.2;;;2.4;;
58306;SDS011;44116;50.884;4.768;2023-03-14T00:27:05;7.4;;;1.8;;
58306;SDS011;44116;50.884;4.768;2023-03-14T00:45:03;8.4;;;2.1;;
58306;SDS011;44116;50.884;4.768;2023-03-14T00:47:02;8.3;;;1.9;;
58306;SDS011;44116;50.884;4.768;2023-03-14T00:49:02;7.9;;;1.8;;
58306;SDS011;44116;50.884;4.768;2023-03-14T00:53:01;8.7;;;2.0;;
58306;SDS011;44116;50.884;4.768;2023-03-14T00:55:01;7.9;;;1.5;;
58306;SDS011;44116;50.884;4.768;2023-03-14T00:57:01;9.9;;;1.9;;
58306;SDS011;44116;50.884;4.768;2023-03-14T00:59:01;7.8;;;1.7;;
58306;SDS011;44116;50.884;4.768;2023-03-14T01:01:05;8.5;;;1.9;;
58306;SDS011;44116;50.884;4.768;2023-03-14T01:03:00;8.3;;;2.0;;
58306;SDS011;44116;50.884;4.768;2023-03-14T01:09:00;8.5;;;1.9;;
58306;SDS011;44116;50.884;4.768;2023-03-14T01:10:59;8.2;;;1.8;;
58306;SDS011;44116;50.884;4.768;2023-03-14T01:12:59;7.3;;;1.6;;
58306;SDS011;44116;50.884;4.768;2023-03-14T01:14:58;12.2;;;2.1;;
58306;SDS011;44116;50.884;4.768;2023-03-14T01:16:58;8.8;;;1.6;;
58306;SDS011;44116;50.884;4.768;2023-03-14T01:18:58;8.8;;;1.8;;
58306;SDS011;44116;50.884;4.768;2023-03-14T01:20:58;10.0;;;2.0;;
58306;SDS011;44116;50.884;4.768;2023-03-14T01:22:58;8.3;;;1.9;;
58306;SDS011;44116;50.884;4.768;2023-03-14T01:26:57;11.1;;;2.0;;
58306;SDS011;44116;50.884;4.768;2023-03-14T01:28:57;11.8;;;2.2;;
58306;SDS011;44116;50.884;4.768;2023-03-14T01:31:02;9.6;;;2.1;;
58306;SDS011;44116;50.884;4.768;2023-03-14T01:32:56;12.0;;;2.2;;
58306;SDS011;44116;50.884;4.768;2023-03-14T01:36:55;9.8;;;2.6;;
58306;SDS011;44116;50.884;4.768;2023-03-14T01:40:55;10.9;;;2.1;;
58306;SDS011;44116;50.884;4.768;2023-03-14T01:42:56;13.0;;;2.0;;
58306;SDS011;44116;50.884;4.768;2023-03-14T01:44:56;11.7;;;2.2;;
58306;SDS011;44116;50.884;4.768;2023-03-14T01:48:59;10.0;;;2.0;;
58306;SDS011;44116;50.884;4.768;2023-03-14T01:54:55;9.4;;;1.9;;
58306;SDS011;44116;50.884;4.768;2023-03-14T01:56:56;11.6;;;2.5;;
58306;SDS011;44116;50.884;4.768;2023-03-14T01:58:52;9.0;;;2.1;;
58306;SDS011;44116;50.884;4.768;2023-03-14T02:00:52;8.9;;;1.8;;
58306;SDS011;44116;50.884;4.768;2023-03-14T02:02:55;10.0;;;1.6;;
58306;SDS011;44116;50.884;4.768;2023-03-14T02:04:53;8.5;;;2.3;;
58306;SDS011;44116;50.884;4.768;2023-03-14T02:06:56;6.5;;;2.0;;
58306;SDS011;44116;50.884;4.768;2023-03-14T02:08:52;7.7;;;1.7;;
58306;SDS011;44116;50.884;4.768;2023-03-14T02:10:50;7.6;;;1.6;;
58306;SDS011;44116;50.884;4.768;2023-03-14T02:12:52;11.5;;;2.3;;
58306;SDS011;44116;50.884;4.768;2023-03-14T02:16:50;9.0;;;1.9;;
58306;SDS011;44116;50.884;4.768;2023-03-14T02:18:49;6.4;;;1.3;;
58306;SDS011;44116;50.884;4.768;2023-03-14T02:22:49;6.8;;;1.4;;
58306;SDS011;44116;50.884;4.768;2023-03-14T02:24:55;9.3;;;2.0;;
58306;SDS011;44116;50.884;4.768;2023-03-14T02:27:04;5.8;;;1.8;;
58306;SDS011;44116;50.884;4.768;2023-03-14T02:28:48;5.6;;;1.2;;
58306;SDS011;44116;50.884;4.768;2023-03-14T02:30:48;5.8;;;1.7;;
58306;SDS011;44116;50.884;4.768;2023-03-14T02:32:50;4.9;;;1.1;;
58306;SDS011;44116;50.884;4.768;2023-03-14T02:34:50;5.2;;;1.3;;
58306;SDS011;44116;50.884;4.768;2023-03-14T02:36:47;5.4;;;1.5;;
58306;SDS011;44116;50.884;4.768;2023-03-14T02:38:50;5.1;;;1.1;;
58306;SDS011;44116;50.884;4.768;2023-03-14T02:40:46;6.5;;;1.2;;
58306;SDS011;44116;50.884;4.768;2023-03-14T02:42:46;4.0;;;1.1;;
58306;SDS011;44116;50.884;4.768;2023-03-14T02:44:58;5.3;;;1.2;;
58306;SDS011;44116;50.884;4.768;2023-03-14T02:46:45;6.0;;;1.3;;
58306;SDS011;44116;50.884;4.768;2023-03-14T02:48:49;3.5;;;1.2;;
58306;SDS011;44116;50.884;4.768;2023-03-14T02:50:47;5.4;;;1.4;;
58306;SDS011;44116;50.884;4.768;2023-03-14T02:52:44;4.5;;;1.2;;
58306;SDS011;44116;50.884;4.768;2023-03-14T02:56:44;4.4;;;1.1;;
58306;SDS011;44116;50.884;4.768;2023-03-14T02:58:43;5.4;;;1.2;;
58306;SDS011;44116;50.884;4.768;2023-03-14T03:02:43;7.6;;;1.8;;
58306;SDS011;44116;50.884;4.768;2023-03-14T03:04:43;5.6;;;1.5;;
58306;SDS011;44116;50.884;4.768;2023-03-14T03:06:42;5.1;;;1.1;;
58306;SDS011;44116;50.884;4.768;2023-03-14T03:10:42;6.8;;;1.3;;
58306;SDS011;44116;50.884;4.768;2023-03-14T03:12:41;4.5;;;1.2;;
58306;SDS011;44116;50.884;4.768;2023-03-14T03:14:41;4.3;;;1.0;;
58306;SDS011;44116;50.884;4.768;2023-03-14T03:16:41;6.2;;;1.8;;
58306;SDS011;44116;50.884;4.768;2023-03-14T03:18:40;4.5;;;1.1;;
58306;SDS011;44116;50.884;4.768;2023-03-14T03:20:40;7.5;;;1.6;;
58306;SDS011;44116;50.884;4.768;2023-03-14T03:22:40;5.9;;;1.2;;
58306;SDS011;44116;50.884;4.768;2023-03-14T03:24:40;6.0;;;1.6;;
58306;SDS011;44116;50.884;4.768;2023-03-14T03:26:39;6.8;;;1.8;;
58306;SDS011;44116;50.884;4.768;2023-03-14T03:28:39;7.6;;;2.3;;
58306;SDS011;44116;50.884;4.768;2023-03-14T03:30:39;5.6;;;1.6;;
58306;SDS011;44116;50.884;4.768;2023-03-14T03:32:38;9.1;;;2.1;;
58306;SDS011;44116;50.884;4.768;2023-03-14T03:34:38;6.9;;;1.7;;
58306;SDS011;44116;50.884;4.768;2023-03-14T03:36:38;9.4;;;2.6;;
58306;SDS011;44116;50.884;4.768;2023-03-14T03:38:37;8.3;;;2.2;;
58306;SDS011;44116;50.884;4.768;2023-03-14T03:40:37;9.6;;;2.5;;
58306;SDS011;44116;50.884;4.768;2023-03-14T03:42:37;10.0;;;2.7;;
58306;SDS011;44116;50.884;4.768;2023-03-14T03:44:37;8.3;;;2.6;;
58306;SDS011;44116;50.884;4.768;2023-03-14T03:50:36;6.8;;;2.2;;
58306;SDS011;44116;50.884;4.768;2023-03-14T03:52:35;9.4;;;2.4;;
58306;SDS011;44116;50.884;4.768;2023-03-14T03:54:35;5.5;;;1.8;;
58306;SDS011;44116;50.884;4.768;2023-03-14T03:56:35;7.3;;;2.3;;
58306;SDS011;44116;50.884;4.768;2023-03-14T04:00:34;7.5;;;1.9;;
58306;SDS011;44116;50.884;4.768;2023-03-14T04:04:34;6.5;;;1.8;;
58306;SDS011;44116;50.884;4.768;2023-03-14T04:08:33;5.1;;;1.7;;
58306;SDS011;44116;50.884;4.768;2023-03-14T04:10:34;4.4;;;1.4;;
58306;SDS011;44116;50.884;4.768;2023-03-14T04:12:32;5.2;;;1.9;;
58306;SDS011;44116;50.884;4.768;2023-03-14T04:14:32;6.0;;;1.6;;
58306;SDS011;44116;50.884;4.768;2023-03-14T04:16:32;5.4;;;1.7;;
58306;SDS011;44116;50.884;4.768;2023-03-14T04:18:32;6.4;;;1.6;;
58306;SDS011;44116;50.884;4.768;2023-03-14T04:20:34;5.1;;;1.7;;
58306;SDS011;44116;50.884;4.768;2023-03-14T04:22:31;7.3;;;1.8;;
58306;SDS011;44116;50.884;4.768;2023-03-14T04:24:31;9.3;;;2.3;;
58306;SDS011;44116;50.884;4.768;2023-03-14T04:26:30;4.8;;;1.6;;
58306;SDS011;44116;50.884;4.768;2023-03-14T04:28:30;5.7;;;1.8;;
58306;SDS011;44116;50.884;4.768;2023-03-14T04:30:30;8.7;;;2.3;;
58306;SDS011;44116;50.884;4.768;2023-03-14T04:32:30;9.7;;;2.7;;
58306;SDS011;44116;50.884;4.768;2023-03-14T04:34:29;7.4;;;2.1;;
58306;SDS011;44116;50.884;4.768;2023-03-14T04:38:29;6.0;;;2.0;;
58306;SDS011;44116;50.884;4.768;2023-03-14T04:42:28;7.0;;;1.6;;
58306;SDS011;44116;50.884;4.768;2023-03-14T04:44:28;7.1;;;1.7;;
58306;SDS011;44116;50.884;4.768;2023-03-14T04:46:28;5.6;;;1.5;;
58306;SDS011;44116;50.884;4.768;2023-03-14T04:48:28;5.5;;;1.7;;
58306;SDS011;44116;50.884;4.768;2023-03-14T04:50:27;5.1;;;1.6;;
58306;SDS011;44116;50.884;4.768;2023-03-14T04:52:27;4.6;;;1.4;;
58306;SDS011;44116;50.884;4.768;2023-03-14T04:54:27;7.7;;;2.0;;
58306;SDS011;44116;50.884;4.768;2023-03-14T04:56:26;7.5;;;1.6;;
58306;SDS011;44116;50.884;4.768;2023-03-14T04:58:26;5.6;;;1.4;;
58306;SDS011;44116;50.884;4.768;2023-03-14T05:00:26;3.4;;;1.3;;
58306;SDS011;44116;50.884;4.768;2023-03-14T05:02:26;4.8;;;1.4;;
58306;SDS011;44116;50.884;4.768;2023-03-14T05:06:25;5.8;;;1.5;;
58306;SDS011;44116;50.884;4.768;2023-03-14T05:08:25;4.6;;;1.7;;
58306;SDS011;44116;50.884;4.768;2023-03-14T05:12:24;2.8;;;1.2;;
58306;SDS011;44116;50.884;4.768;2023-03-14T05:14:24;5.4;;;1.4;;
58306;SDS011;44116;50.884;4.768;2023-03-14T05:16:23;3.6;;;1.2;;
58306;SDS011;44116;50.884;4.768;2023-03-14T05:18:23;5.4;;;1.3;;
58306;SDS011;44116;50.884;4.768;2023-03-14T05:22:22;3.8;;;1.5;;
58306;SDS011;44116;50.884;4.768;2023-03-14T05:24:22;3.7;;;1.7;;
58306;SDS011;44116;50.884;4.768;2023-03-14T05:26:22;4.9;;;1.5;;
58306;SDS011;44116;50.884;4.768;2023-03-14T05:28:22;3.0;;;1.4;;
58306;SDS011;44116;50.884;4.768;2023-03-14T05:30:22;2.9;;;1.3;;
58306;SDS011;44116;50.884;4.768;2023-03-14T05:32:21;3.0;;;1.5;;
58306;SDS011;44116;50.884;4.768;2023-03-14T05:36:20;5.5;;;1.6;;
58306;SDS011;44116;50.884;4.768;2023-03-14T05:38:20;3.3;;;1.5;;
58306;SDS011;44116;50.884;4.768;2023-03-14T05:42:20;3.1;;;1.2;;
58306;SDS011;44116;50.884;4.768;2023-03-14T05:44:19;2.8;;;1.4;;
58306;SDS011;44116;50.884;4.768;2023-03-14T05:46:19;1.9;;;1.1;;
58306;SDS011;44116;50.884;4.768;2023-03-14T05:50:18;3.4;;;1.3;;
58306;SDS011;44116;50.884;4.768;2023-03-14T05:52:18;1.7;;;1.0;;
58306;SDS011;44116;50.884;4.768;2023-03-14T05:54:18;2.9;;;1.1;;
58306;SDS011;44116;50.884;4.768;2023-03-14T05:56:18;1.7;;;1.2;;
58306;SDS011;44116;50.884;4.768;2023-03-14T06:00:17;3.6;;;1.5;;
58306;SDS011;44116;50.884;4.768;2023-03-14T06:02:17;2.8;;;1.2;;
58306;SDS011;44116;50.884;4.768;2023-03-14T06:04:16;3.6;;;1.8;;
58306;SDS011;44116;50.884;4.768;2023-03-14T06:06:16;3.0;;;1.4;;
58306;SDS011;44116;50.884;4.768;2023-03-14T06:08:16;3.4;;;1.6;;
58306;SDS011;44116;50.884;4.768;2023-03-14T06:12:15;3.4;;;1.7;;
58306;SDS011;44116;50.884;4.768;2023-03-14T06:14:15;2.9;;;1.6;;
58306;SDS011;44116;50.884;4.768;2023-03-14T06:16:14;3.6;;;1.8;;
58306;SDS011;44116;50.884;4.768;2023-03-14T06:18:14;3.4;;;1.9;;
58306;SDS011;44116;50.884;4.768;2023-03-14T06:20:14;5.3;;;2.0;;
58306;SDS011;44116;50.884;4.768;2023-03-14T06:24:13;4.4;;;2.1;;
58306;SDS011;44116;50.884;4.768;2023-03-14T06:26:13;4.1;;;2.2;;
58306;SDS011;44116;50.884;4.768;2023-03-14T06:30:13;5.1;;;2.3;;
58306;SDS011;44116;50.884;4.768;2023-03-14T06:34:12;3.9;;;1.9;;
58306;SDS011;44116;50.884;4.768;2023-03-14T06:36:11;4.2;;;2.1;;
58306;SDS011;44116;50.884;4.768;2023-03-14T06:40:11;5.4;;;2.3;;
58306;SDS011;44116;50.884;4.768;2023-03-14T06:42:11;4.0;;;2.2;;
58306;SDS011;44116;50.884;4.768;2023-03-14T06:44:10;5.2;;;2.4;;
58306;SDS011;44116;50.884;4.768;2023-03-14T06:46:10;6.2;;;3.5;;
58306;SDS011;44116;50.884;4.768;2023-03-14T06:48:09;5.9;;;2.8;;
58306;SDS011;44116;50.884;4.768;2023-03-14T06:50:10;5.9;;;2.5;;
58306;SDS011;44116;50.884;4.768;2023-03-14T06:52:09;5.9;;;3.3;;
58306;SDS011;44116;50.884;4.768;2023-03-14T06:54:09;5.3;;;3.2;;
58306;SDS011;44116;50.884;4.768;2023-03-14T06:56:09;4.4;;;2.4;;
58306;SDS011;44116;50.884;4.768;2023-03-14T06:58:08;6.9;;;3.4;;
58306;SDS011;44116;50.884;4.768;2023-03-14T07:00:09;6.5;;;2.6;;
58306;SDS011;44116;50.884;4.768;2023-03-14T07:02:10;4.6;;;2.5;;
58306;SDS011;44116;50.884;4.768;2023-03-14T07:04:08;4.6;;;2.6;;
58306;SDS011;44116;50.884;4.768;2023-03-14T07:06:07;4.2;;;2.5;;
58306;SDS011;44116;50.884;4.768;2023-03-14T07:08:08;5.9;;;2.8;;
58306;SDS011;44116;50.884;4.768;2023-03-14T07:10:07;3.7;;;2.5;;
58306;SDS011;44116;50.884;4.768;2023-03-14T07:12:07;3.6;;;2.3;;
58306;SDS011;44116;50.884;4.768;2023-03-14T07:14:06;7.1;;;3.1;;
58306;SDS011;44116;50.884;4.768;2023-03-14T07:16:07;3.3;;;1.6;;
58306;SDS011;44116;50.884;4.768;2023-03-14T07:18:06;1.8;;;0.9;;
58306;SDS011;44116;50.884;4.768;2023-03-14T07:20:07;2.7;;;1.1;;
58306;SDS011;44116;50.884;4.768;2023-03-14T07:22:05;3.0;;;0.9;;
58306;SDS011;44116;50.884;4.768;2023-03-14T07:26:05;2.7;;;1.0;;
58306;SDS011;44116;50.884;4.768;2023-03-14T07:32:04;3.1;;;1.1;;
58306;SDS011;44116;50.884;4.768;2023-03-14T07:34:03;2.2;;;1.0;;
58306;SDS011;44116;50.884;4.768;2023-03-14T07:38:02;3.3;;;0.9;;
58306;SDS011;44116;50.884;4.768;2023-03-14T07:40:03;1.6;;;0.8;;
58306;SDS011;44116;50.884;4.768;2023-03-14T07:42:02;2.7;;;1.0;;
58306;SDS011;44116;50.884;4.768;2023-03-14T07:50:01;3.6;;;1.3;;
58306;SDS011;44116;50.884;4.768;2023-03-14T07:52:00;3.6;;;1.2;;
58306;SDS011;44116;50.884;4.768;2023-03-14T07:54:00;3.7;;;1.4;;
58306;SDS011;44116;50.884;4.768;2023-03-14T07:55:59;3.5;;;1.3;;
58306;SDS011;44116;50.884;4.768;2023-03-14T07:57:59;3.3;;;1.1;;
58306;SDS011;44116;50.884;4.768;2023-03-14T08:01:58;5.0;;;1.4;;
58306;SDS011;44116;50.884;4.768;2023-03-14T08:03:58;3.4;;;1.2;;
58306;SDS011;44116;50.884;4.768;2023-03-14T08:05:58;3.2;;;1.1;;
58306;SDS011;44116;50.884;4.768;2023-03-14T08:07:57;3.0;;;1.2;;
58306;SDS011;44116;50.884;4.768;2023-03-14T08:11:57;5.3;;;1.6;;
58306;SDS011;44116;50.884;4.768;2023-03-14T08:13:57;3.5;;;1.3;;
58306;SDS011;44116;50.884;4.768;2023-03-14T08:17:56;3.4;;;1.5;;
58306;SDS011;44116;50.884;4.768;2023-03-14T08:19:55;4.4;;;1.4;;
58306;SDS011;44116;50.884;4.768;2023-03-14T08:21:55;5.8;;;1.8;;
58306;SDS011;44116;50.884;4.768;2023-03-14T08:23:54;5.9;;;1.7;;
58306;SDS011;44116;50.884;4.768;2023-03-14T08:25:55;4.5;;;1.9;;
58306;SDS011;44116;50.884;4.768;2023-03-14T08:27:55;5.1;;;1.6;;
58306;SDS011;44116;50.884;4.768;2023-03-14T08:29:54;5.3;;;2.0;;
58306;SDS011;44116;50.884;4.768;2023-03-14T08:33:54;4.4;;;2.2;;
58306;SDS011;44116;50.884;4.768;2023-03-14T08:35:53;5.8;;;2.4;;
58306;SDS011;44116;50.884;4.768;2023-03-14T08:37:53;7.8;;;3.1;;
58306;SDS011;44116;50.884;4.768;2023-03-14T08:41:52;7.4;;;3.0;;
58306;SDS011;44116;50.884;4.768;2023-03-14T08:43:52;5.4;;;3.2;;
58306;SDS011;44116;50.884;4.768;2023-03-14T08:45:52;7.1;;;3.4;;
58306;SDS011;44116;50.884;4.768;2023-03-14T08:47:51;5.7;;;3.6;;
58306;SDS011;44116;50.884;4.768;2023-03-14T08:49:51;6.6;;;3.2;;
58306;SDS011;44116;50.884;4.768;2023-03-14T08:51:50;6.6;;;2.6;;
58306;SDS011;44116;50.884;4.768;2023-03-14T08:53:50;4.8;;;2.5;;
58306;SDS011;44116;50.884;4.768;2023-03-14T08:55:52;4.9;;;2.1;;
58306;SDS011;44116;50.884;4.768;2023-03-14T08:57:49;5.7;;;2.3;;
58306;SDS011;44116;50.884;4.768;2023-03-14T08:59:49;2.5;;;1.6;;
58306;SDS011;44116;50.884;4.768;2023-03-14T09:01:49;4.2;;;1.8;;
58306;SDS011;44116;50.884;4.768;2023-03-14T09:03:48;4.0;;;1.4;;
58306;SDS011;44116;50.884;4.768;2023-03-14T09:05:48;2.8;;;1.2;;
58306;SDS011;44116;50.884;4.768;2023-03-14T09:07:47;4.7;;;1.3;;
58306;SDS011;44116;50.884;4.768;2023-03-14T09:09:47;3.4;;;1.4;;
58306;SDS011;44116;50.884;4.768;2023-03-14T09:11:47;3.4;;;1.6;;
58306;SDS011;44116;50.884;4.768;2023-03-14T09:13:46;3.8;;;1.5;;
58306;SDS011;44116;50.884;4.768;2023-03-14T09:15:49;4.8;;;2.0;;
58306;SDS011;44116;50.884;4.768;2023-03-14T09:17:46;5.0;;;2.1;;
58306;SDS011;44116;50.884;4.768;2023-03-14T09:21:45;4.0;;;1.8;;
58306;SDS011;44116;50.884;4.768;2023-03-14T09:23:44;5.5;;;2.1;;
58306;SDS011;44116;50.884;4.768;2023-03-14T09:25:44;3.9;;;1.9;;
58306;SDS011;44116;50.884;4.768;2023-03-14T09:27:44;4.9;;;2.2;;
58306;SDS011;44116;50.884;4.768;2023-03-14T09:29:43;7.3;;;2.8;;
58306;SDS011;44116;50.884;4.768;2023-03-14T09:31:43;6.5;;;3.0;;
58306;SDS011;44116;50.884;4.768;2023-03-14T09:33:43;9.1;;;2.9;;
58306;SDS011;44116;50.884;4.768;2023-03-14T09:37:42;7.1;;;3.0;;
58306;SDS011;44116;50.884;4.768;2023-03-14T09:39:41;4.6;;;1.9;;
58306;SDS011;44116;50.884;4.768;2023-03-14T09:41:43;5.7;;;2.2;;
58306;SDS011;44116;50.884;4.768;2023-03-14T09:43:42;3.3;;;2.0;;
58306;SDS011;44116;50.884;4.768;2023-03-14T09:45:41;6.8;;;2.9;;
58306;SDS011;44116;50.884;4.768;2023-03-14T09:47:40;3.9;;;2.2;;
58306;SDS011;44116;50.884;4.768;2023-03-14T09:51:40;4.4;;;2.5;;
58306;SDS011;44116;50.884;4.768;2023-03-14T09:53:40;5.1;;;2.6;;
58306;SDS011;44116;50.884;4.768;2023-03-14T09:55:38;6.0;;;2.5;;
58306;SDS011;44116;50.884;4.768;2023-03-14T09:57:39;6.8;;;2.7;;
58306;SDS011;44116;50.884;4.768;2023-03-14T09:59:39;5.7;;;2.8;;
58306;SDS011;44116;50.884;4.768;2023-03-14T10:03:37;4.8;;;2.7;;
58306;SDS011;44116;50.884;4.768;2023-03-14T10:05:37;5.6;;;2.9;;
58306;SDS011;44116;50.884;4.768;2023-03-14T10:07:36;5.6;;;2.8;;
58306;SDS011;44116;50.884;4.768;2023-03-14T10:09:36;5.5;;;2.9;;
58306;SDS011;44116;50.884;4.768;2023-03-14T10:11:35;7.2;;;2.6;;
58306;SDS011;44116;50.884;4.768;2023-03-14T10:13:47;5.6;;;2.7;;
58306;SDS011;44116;50.884;4.768;2023-03-14T10:15:36;6.2;;;2.5;;
58306;SDS011;44116;50.884;4.768;2023-03-14T10:17:39;9.6;;;3.3;;
58306;SDS011;44116;50.884;4.768;2023-03-14T10:19:34;6.5;;;2.9;;
58306;SDS011;44116;50.884;4.768;2023-03-14T10:21:39;9.2;;;3.3;;
58306;SDS011;44116;50.884;4.768;2023-03-14T10:23:34;7.2;;;3.0;;
58306;SDS011;44116;50.884;4.768;2023-03-14T10:25:34;7.9;;;3.3;;
58306;SDS011;44116;50.884;4.768;2023-03-14T10:27:34;9.6;;;3.4;;
58306;SDS011;44116;50.884;4.768;2023-03-14T10:29:33;8.4;;;3.7;;
58306;SDS011;44116;50.884;4.768;2023-03-14T10:31:46;7.1;;;3.0;;
58306;SDS011;44116;50.884;4.768;2023-03-14T10:39:36;8.0;;;3.2;;
58306;SDS011;44116;50.884;4.768;2023-03-14T10:41:31;7.2;;;2.7;;
58306;SDS011;44116;50.884;4.768;2023-03-14T10:43:32;10.8;;;3.1;;
58306;SDS011;44116;50.884;4.768;2023-03-14T10:45:32;7.5;;;2.6;;
58306;SDS011;44116;50.884;4.768;2023-03-14T10:47:29;10.4;;;2.7;;
58306;SDS011;44116;50.884;4.768;2023-03-14T10:49:29;4.9;;;2.2;;
58306;SDS011;44116;50.884;4.768;2023-03-14T10:51:29;5.9;;;2.0;;
58306;SDS011;44116;50.884;4.768;2023-03-14T10:53:33;3.7;;;1.7;;
58306;SDS011;44116;50.884;4.768;2023-03-14T10:55:40;5.1;;;1.7;;
58306;SDS011;44116;50.884;4.768;2023-03-14T10:57:38;3.6;;;1.2;;
58306;SDS011;44116;50.884;4.768;2023-03-14T10:59:36;3.3;;;1.3;;
58306;SDS011;44116;50.884;4.768;2023-03-14T11:01:39;4.8;;;1.2;;
58306;SDS011;44116;50.884;4.768;2023-03-14T11:03:35;3.1;;;1.0;;
58306;SDS011;44116;50.884;4.768;2023-03-14T11:15:34;4.5;;;1.3;;
58306;SDS011;44116;50.884;4.768;2023-03-14T11:19:42;1.8;;;0.9;;
58306;SDS011;44116;50.884;4.768;2023-03-14T11:23:35;1.1;;;0.7;;
58306;SDS011;44116;50.884;4.768;2023-03-14T11:33:33;0.7;;;0.6;;
58306;SDS011;44116;50.884;4.768;2023-03-14T11:35:30;1.7;;;1.0;;
58306;SDS011;44116;50.884;4.768;2023-03-14T11:37:33;1.1;;;0.8;;
58306;SDS011;44116;50.884;4.768;2023-03-14T11:39:36;2.0;;;1.0;;
58306;SDS011;44116;50.884;4.768;2023-03-14T11:41:30;2.0;;;0.9;;
58306;SDS011;44116;50.884;4.768;2023-03-14T11:43:29;1.7;;;1.0;;
58306;SDS011;44116;50.884;4.768;2023-03-14T11:47:29;2.9;;;1.3;;
58306;SDS011;44116;50.884;4.768;2023-03-14T11:49:59;2.5;;;1.1;;
58306;SDS011;44116;50.884;4.768;2023-03-14T11:51:28;3.4;;;1.2;;
58306;SDS011;44116;50.884;4.768;2023-03-14T11:53:38;2.1;;;1.0;;
58306;SDS011;44116;50.884;4.768;2023-03-14T11:55:26;3.0;;;0.9;;
58306;SDS011;44116;50.884;4.768;2023-03-14T11:57:23;1.2;;;1.0;;
58306;SDS011;44116;50.884;4.768;2023-03-14T11:59:28;2.8;;;1.3;;
58306;SDS011;44116;50.884;4.768;2023-03-14T12:01:27;1.4;;;1.0;;
58306;SDS011;44116;50.884;4.768;2023-03-14T12:03:29;4.9;;;1.4;;
58306;SDS011;44116;50.884;4.768;2023-03-14T12:05:35;3.1;;;1.1;;
58306;SDS011;44116;50.884;4.768;2023-03-14T12:07:29;1.9;;;1.0;;
58306;SDS011;44116;50.884;4.768;2023-03-14T12:09:22;2.1;;;0.9;;
58306;SDS011;44116;50.884;4.768;2023-03-14T12:11:30;1.9;;;1.1;;
58306;SDS011;44116;50.884;4.768;2023-03-14T12:13:21;1.6;;;1.0;;
58306;SDS011;44116;50.884;4.768;2023-03-14T12:15:21;2.1;;;0.9;;
58306;SDS011;44116;50.884;4.768;2023-03-14T12:17:21;3.4;;;1.0;;
58306;SDS011;44116;50.884;4.768;2023-03-14T12:19:31;3.2;;;1.3;;
58306;SDS011;44116;50.884;4.768;2023-03-14T12:21:20;2.7;;;0.9;;
58306;SDS011;44116;50.884;4.768;2023-03-14T12:23:19;2.3;;;1.0;;
58306;SDS011;44116;50.884;4.768;2023-03-14T12:25:20;3.0;;;0.9;;
58306;SDS011;44116;50.884;4.768;2023-03-14T12:33:20;3.6;;;1.2;;
58306;SDS011;44116;50.884;4.768;2023-03-14T12:35:34;1.9;;;1.0;;
58306;SDS011;44116;50.884;4.768;2023-03-14T12:37:25;2.1;;;1.3;;
58306;SDS011;44116;50.884;4.768;2023-03-14T12:39:21;3.2;;;1.0;;
58306;SDS011;44116;50.884;4.768;2023-03-14T12:43:25;3.4;;;1.1;;
58306;SDS011;44116;50.884;4.768;2023-03-14T12:45:22;3.5;;;1.2;;
58306;SDS011;44116;50.884;4.768;2023-03-14T12:49:14;2.6;;;1.0;;
58306;SDS011;44116;50.884;4.768;2023-03-14T12:55:17;2.2;;;1.1;;
58306;SDS011;44116;50.884;4.768;2023-03-14T12:57:22;3.0;;;1.0;;
58306;SDS011;44116;50.884;4.768;2023-03-14T12:59:27;3.3;;;1.2;;
58306;SDS011;44116;50.884;4.768;2023-03-14T13:01:16;5.2;;;1.7;;
58306;SDS011;44116;50.884;4.768;2023-03-14T13:03:18;2.1;;;1.0;;
58306;SDS011;44116;50.884;4.768;2023-03-14T13:05:14;4.2;;;1.1;;
58306;SDS011;44116;50.884;4.768;2023-03-14T13:07:12;5.2;;;1.6;;
58306;SDS011;44116;50.884;4.768;2023-03-14T13:11:13;5.8;;;1.2;;
58306;SDS011;44116;50.884;4.768;2023-03-14T13:13:17;5.6;;;1.8;;
58306;SDS011;44116;50.884;4.768;2023-03-14T13:15:17;4.1;;;1.3;;
58306;SDS011;44116;50.884;4.768;2023-03-14T13:17:10;9.2;;;1.8;;
58306;SDS011;44116;50.884;4.768;2023-03-14T13:21:12;8.8;;;2.1;;
58306;SDS011;44116;50.884;4.768;2023-03-14T13:23:19;11.0;;;2.5;;
58306;SDS011;44116;50.884;4.768;2023-03-14T13:25:10;8.6;;;1.9;;
58306;SDS011;44116;50.884;4.768;2023-03-14T13:29:11;7.7;;;2.0;;
58306;SDS011;44116;50.884;4.768;2023-03-14T13:31:20;8.0;;;1.8;;
58306;SDS011;44116;50.884;4.768;2023-03-14T13:33:06;6.9;;;1.5;;
58306;SDS011;44116;50.884;4.768;2023-03-14T13:35:14;4.8;;;1.4;;
58306;SDS011;44116;50.884;4.768;2023-03-14T13:37:15;7.8;;;1.9;;
58306;SDS011;44116;50.884;4.768;2023-03-14T13:39:12;8.5;;;1.5;;
58306;SDS011;44116;50.884;4.768;2023-03-14T13:41:07;5.6;;;1.8;;
58306;SDS011;44116;50.884;4.768;2023-03-14T13:43:11;6.3;;;1.9;;
58306;SDS011;44116;50.884;4.768;2023-03-14T13:45:04;8.8;;;2.0;;
58306;SDS011;44116;50.884;4.768;2023-03-14T13:47:09;7.3;;;1.6;;
58306;SDS011;44116;50.884;4.768;2023-03-14T13:49:05;13.3;;;2.3;;
58306;SDS011;44116;50.884;4.768;2023-03-14T13:51:05;12.5;;;2.4;;
58306;SDS011;44116;50.884;4.768;2023-03-14T13:55:04;12.8;;;3.0;;
58306;SDS011;44116;50.884;4.768;2023-03-14T13:57:04;13.1;;;2.3;;
58306;SDS011;44116;50.884;4.768;2023-03-14T14:01:05;11.2;;;2.4;;
58306;SDS011;44116;50.884;4.768;2023-03-14T14:03:01;12.8;;;2.6;;
58306;SDS011;44116;50.884;4.768;2023-03-14T14:05:01;11.7;;;2.3;;
58306;SDS011;44116;50.884;4.768;2023-03-14T14:07:00;12.0;;;2.5;;
58306;SDS011;44116;50.884;4.768;2023-03-14T14:09:02;11.8;;;2.3;;
58306;SDS011;44116;50.884;4.768;2023-03-14T14:11:01;11.4;;;2.5;;
58306;SDS011;44116;50.884;4.768;2023-03-14T14:13:01;15.1;;;2.7;;
58306;SDS011;44116;50.884;4.768;2023-03-14T14:15:02;12.1;;;2.6;;
58306;SDS011;44116;50.884;4.768;2023-03-14T14:18:59;15.7;;;2.5;;
58306;SDS011;44116;50.884;4.768;2023-03-14T14:20:57;15.1;;;3.1;;
58306;SDS011;44116;50.884;4.768;2023-03-14T14:24:57;16.5;;;2.4;;
58306;SDS011;44116;50.884;4.768;2023-03-14T14:26:59;14.7;;;2.8;;
58306;SDS011;44116;50.884;4.768;2023-03-14T14:29:04;10.4;;;2.3;;
58306;SDS011;44116;50.884;4.768;2023-03-14T14:36:54;9.2;;;2.3;;
58306;SDS011;44116;50.884;4.768;2023-03-14T14:38:57;12.3;;;2.4;;
58306;SDS011;44116;50.884;4.768;2023-03-14T14:40:58;13.4;;;3.1;;
58306;SDS011;44116;50.884;4.768;2023-03-14T14:42:53;10.2;;;2.4;;
58306;SDS011;44116;50.884;4.768;2023-03-14T14:44:53;11.3;;;2.3;;
58306;SDS011;44116;50.884;4.768;2023-03-14T14:46:54;10.9;;;2.0;;
58306;SDS011;44116;50.884;4.768;2023-03-14T14:48:55;12.5;;;2.5;;
58306;SDS011;44116;50.884;4.768;2023-03-14T14:50:58;11.2;;;2.9;;
58306;SDS011;44116;50.884;4.768;2023-03-14T14:52:56;7.3;;;2.5;;
58306;SDS011;44116;50.884;4.768;2023-03-14T14:54:52;13.0;;;2.6;;
58306;SDS011;44116;50.884;4.768;2023-03-14T14:56:52;15.2;;;3.6;;
58306;SDS011;44116;50.884;4.768;2023-03-14T14:58:57;14.1;;;3.4;;
58306;SDS011;44116;50.884;4.768;2023-03-14T15:00:53;16.0;;;2.9;;
58306;SDS011;44116;50.884;4.768;2023-03-14T15:02:51;18.5;;;3.1;;
58306;SDS011;44116;50.884;4.768;2023-03-14T15:04:49;15.4;;;2.8;;
58306;SDS011;44116;50.884;4.768;2023-03-14T15:06:50;12.3;;;2.6;;
58306;SDS011;44116;50.884;4.768;2023-03-14T15:08:49;9.9;;;2.1;;
58306;SDS011;44116;50.884;4.768;2023-03-14T15:10:48;17.4;;;3.3;;
58306;SDS011;44116;50.884;4.768;2023-03-14T15:12:48;9.4;;;1.9;;
58306;SDS011;44116;50.884;4.768;2023-03-14T15:14:47;8.5;;;2.5;;
58306;SDS011;44116;50.884;4.768;2023-03-14T15:16:47;7.0;;;2.0;;
58306;SDS011;44116;50.884;4.768;2023-03-14T15:18:49;10.3;;;1.8;;
58306;SDS011;44116;50.884;4.768;2023-03-14T15:20:46;9.0;;;1.9;;